Time;durP1;ratioP1;P1;durP2;ratioP2;P2;SDS_P1;SDS_P2;PMS_P1;PMS_P2;Temp;Humidity;BMP_temperature;BMP_pressure;BME280_temperature;BME280_humidity;BME280_pressure;Samples;Min_cycle;Max_cycle;Signal;HPM_P1;HPM_P2
2022/05/05 00:00:07;;;;;;;;;;;19.00;99.90;;;;;;5096369;28;20328;-74
2022/05/05 00:02:35;;;;;;;;;;;19.00;99.90;;;;;;5096396;28;19930;-75
2022/05/05 00:05:03;;;;;;;;;;;19.00;99.90;;;;;;5096378;28;20405;-76
2022/05/05 00:07:29;;;;;;;;;;;19.10;99.90;;;;;;5096248;28;19969;-76
2022/05/05 00:09:56;;;;;;;;;;;19.10;99.90;;;;;;5096153;28;19908;-75
2022/05/05 00:15:07;;;;;;;;;;;19.30;99.90;;;;;;5096007;28;19996;-77
2022/05/05 00:17:34;;;;;;;;;;;19.30;99.90;;;;;;5095615;28;20371;-75
2022/05/05 00:20:01;;;;;;;;;;;19.40;99.90;;;;;;5096024;28;20375;-75
2022/05/05 00:22:28;;;;;;;;;;;19.40;99.90;;;;;;5095748;28;19991;-75
2022/05/05 00:24:54;;;;;;;;;;;19.50;99.90;;;;;;5094580;28;20347;-75
2022/05/05 00:27:22;;;;;;;;;;;19.50;99.90;;;;;;5095918;28;19912;-75
2022/05/05 00:29:49;;;;;;;;;;;19.50;99.90;;;;;;5095386;28;20033;-76
2022/05/05 00:32:16;;;;;;;;;;;19.50;99.90;;;;;;5095651;28;19908;-75
2022/05/05 00:34:43;;;;;;;;;;;19.60;99.90;;;;;;5095619;28;19916;-75
2022/05/05 00:37:10;;;;;;;;;;;19.70;99.90;;;;;;5095731;28;20346;-76
2022/05/05 00:39:36;;;;;;;;;;;19.70;99.90;;;;;;5095555;28;19998;-75
2022/05/05 00:42:03;;;;;;;;;;;19.80;99.90;;;;;;5095651;28;19915;-76
2022/05/05 00:44:30;;;;;;;;;;;19.80;99.90;;;;;;5094351;28;19911;-76
2022/05/05 00:46:57;;;;;;;;;;;19.90;99.90;;;;;;5095510;28;19958;-75
2022/05/05 00:49:24;;;;;;;;;;;20.00;99.90;;;;;;5095246;28;19919;-75
2022/05/05 00:51:51;;;;;;;;;;;20.00;99.90;;;;;;5095216;28;19912;-75
2022/05/05 00:54:17;;;;;;;;;;;20.00;99.90;;;;;;5094038;28;19916;-76
2022/05/05 00:56:47;;;;;;;;;;;20.00;99.90;;;;;;5095373;28;19985;-77
2022/05/05 00:59:14;;;;;;;;;;;20.00;99.90;;;;;;5095154;28;20269;-76
2022/05/05 01:01:41;;;;;;;;;;;20.00;99.90;;;;;;5095060;28;19923;-75
2022/05/05 01:04:07;;;;;;;;;;;20.00;99.90;;;;;;5095112;28;19954;-75
2022/05/05 01:06:34;;;;;;;;;;;20.10;99.90;;;;;;5094085;28;19908;-75
2022/05/05 01:09:01;;;;;;;;;;;20.20;99.90;;;;;;5093778;28;19909;-76
2022/05/05 01:11:29;;;;;;;;;;;20.20;99.90;;;;;;5095368;28;19908;-77
2022/05/05 01:13:56;;;;;;;;;;;20.30;99.90;;;;;;5095085;28;19908;-76
2022/05/05 01:16:23;;;;;;;;;;;20.30;99.90;;;;;;5094916;28;20340;-77
2022/05/05 01:18:55;;;;;;;;;;;20.30;99.90;;;;;;5095035;28;19912;-77
2022/05/05 01:21:22;;;;;;;;;;;20.40;99.90;;;;;;5094939;28;19915;-77
2022/05/05 01:23:49;;;;;;;;;;;20.40;99.90;;;;;;5094502;28;19908;-78
2022/05/05 01:29:01;;;;;;;;;;;20.30;99.90;;;;;;5093924;28;19929;-77
2022/05/05 01:31:27;;;;;;;;;;;20.30;99.90;;;;;;5094991;28;19912;-78
2022/05/05 01:33:54;;;;;;;;;;;20.40;99.90;;;;;;5094569;28;19908;-78
2022/05/05 01:36:21;;;;;;;;;;;20.30;99.90;;;;;;5094883;28;19995;-77
2022/05/05 01:38:47;;;;;;;;;;;20.40;99.90;;;;;;5094901;28;19912;-76
2022/05/05 01:41:15;;;;;;;;;;;20.40;99.90;;;;;;5095023;28;20385;-76
2022/05/05 01:43:43;;;;;;;;;;;20.50;99.90;;;;;;5094139;28;20313;-76
2022/05/05 01:46:10;;;;;;;;;;;20.50;99.90;;;;;;5094447;28;19912;-77
2022/05/05 01:48:37;;;;;;;;;;;20.40;99.90;;;;;;5093127;28;19908;-77
2022/05/05 01:51:04;;;;;;;;;;;20.50;99.90;;;;;;5094124;28;19920;-77
2022/05/05 01:53:40;;;;;;;;;;;20.50;99.90;;;;;;5093992;28;19912;-77
2022/05/05 01:56:08;;;;;;;;;;;20.60;99.90;;;;;;5093119;28;19916;-78
2022/05/05 01:58:34;;;;;;;;;;;20.60;99.90;;;;;;5087181;28;19965;-76
2022/05/05 02:01:01;;;;;;;;;;;20.60;99.90;;;;;;5075431;28;20387;-77
2022/05/05 02:03:27;;;;;;;;;;;20.70;99.90;;;;;;5073577;28;20403;-76
2022/05/05 02:05:54;;;;;;;;;;;20.70;99.90;;;;;;5073043;28;19932;-77
2022/05/05 02:08:21;;;;;;;;;;;20.70;99.90;;;;;;5072995;28;20346;-77
2022/05/05 02:10:47;;;;;;;;;;;20.70;99.90;;;;;;5113640;28;19919;-77
2022/05/05 02:13:20;;;;;;;;;;;20.80;99.90;;;;;;5114018;28;19908;-76
2022/05/05 02:15:47;;;;;;;;;;;20.70;99.90;;;;;;5113916;28;19916;-76
2022/05/05 02:18:14;;;;;;;;;;;20.70;99.90;;;;;;5114010;28;19915;-76
2022/05/05 02:20:41;;;;;;;;;;;20.80;99.90;;;;;;5114149;28;19918;-76
2022/05/05 02:23:08;;;;;;;;;;;20.80;99.90;;;;;;5114081;28;20285;-77
2022/05/05 02:25:35;;;;;;;;;;;20.80;99.90;;;;;;5113990;28;19998;-76
2022/05/05 02:28:01;;;;;;;;;;;20.70;99.90;;;;;;5113997;28;19961;-76
2022/05/05 02:30:29;;;;;;;;;;;20.80;99.90;;;;;;5113768;28;19955;-76
2022/05/05 02:32:55;;;;;;;;;;;20.80;99.90;;;;;;5112343;28;19943;-76
2022/05/05 02:35:22;;;;;;;;;;;20.90;99.90;;;;;;5113874;28;19951;-77
2022/05/05 02:40:34;;;;;;;;;;;20.90;99.90;;;;;;5113939;28;19968;-76
2022/05/05 02:43:00;;;;;;;;;;;21.10;99.90;;;;;;5113456;28;19933;-76
2022/05/05 02:45:27;;;;;;;;;;;21.00;99.90;;;;;;5113883;28;19991;-76
2022/05/05 02:47:54;;;;;;;;;;;20.90;99.90;;;;;;5113669;28;19908;-77
2022/05/05 02:50:21;;;;;;;;;;;20.90;99.90;;;;;;5113698;28;19919;-77
2022/05/05 02:52:47;;;;;;;;;;;20.80;99.90;;;;;;5113747;28;19973;-77
2022/05/05 02:55:14;;;;;;;;;;;20.80;99.90;;;;;;5113581;28;19996;-77
2022/05/05 02:57:41;;;;;;;;;;;20.90;99.90;;;;;;5113463;28;20002;-76
2022/05/05 03:00:10;;;;;;;;;;;21.00;99.90;;;;;;5112452;28;19919;-75
2022/05/05 03:02:37;;;;;;;;;;;21.10;99.90;;;;;;5113574;28;19911;-75
2022/05/05 03:05:04;;;;;;;;;;;21.10;99.90;;;;;;5113668;28;20057;-76
2022/05/05 03:07:31;;;;;;;;;;;21.20;99.90;;;;;;5113556;28;19907;-76
2022/05/05 03:09:57;;;;;;;;;;;21.30;99.90;;;;;;5113550;28;19912;-77
2022/05/05 03:12:24;;;;;;;;;;;21.40;99.90;;;;;;5113493;28;19908;-76
2022/05/05 03:14:51;;;;;;;;;;;21.50;99.90;;;;;;5113530;28;19923;-75
2022/05/05 03:17:17;;;;;;;;;;;21.50;99.90;;;;;;5113295;28;19911;-76
2022/05/05 03:19:44;;;;;;;;;;;21.50;99.90;;;;;;5113337;28;20354;-76
2022/05/05 03:22:11;;;;;;;;;;;21.50;99.90;;;;;;5112184;28;19961;-76
2022/05/05 03:24:37;;;;;;;;;;;21.70;99.90;;;;;;5113410;28;19965;-76
2022/05/05 03:27:04;;;;;;;;;;;21.70;99.90;;;;;;5112099;28;19908;-77
2022/05/05 03:29:32;;;;;;;;;;;21.50;99.90;;;;;;5113429;28;19939;-77
2022/05/05 03:31:59;;;;;;;;;;;21.50;99.90;;;;;;5113404;28;19998;-77
2022/05/05 03:34:26;;;;;;;;;;;21.40;99.90;;;;;;5113408;28;19957;-77
2022/05/05 03:36:52;;;;;;;;;;;21.50;99.90;;;;;;5113384;28;19911;-77
2022/05/05 03:39:19;;;;;;;;;;;21.40;99.90;;;;;;5113212;28;19955;-77
2022/05/05 03:41:45;;;;;;;;;;;21.40;99.90;;;;;;5112985;28;19908;-76
2022/05/05 03:44:12;;;;;;;;;;;21.30;99.90;;;;;;5113347;28;20350;-77
2022/05/05 03:46:39;;;;;;;;;;;21.20;99.90;;;;;;5113223;28;19925;-76
2022/05/05 03:49:05;;;;;;;;;;;21.20;99.90;;;;;;5112934;28;20002;-76
2022/05/05 03:51:32;;;;;;;;;;;21.20;99.90;;;;;;5112995;28;19916;-76
2022/05/05 03:53:58;;;;;;;;;;;21.20;99.90;;;;;;5116569;28;20239;-76
2022/05/05 03:56:25;;;;;;;;;;;21.20;99.90;;;;;;5116762;28;20369;-76
2022/05/05 03:58:52;;;;;;;;;;;21.20;99.90;;;;;;5116945;28;20412;-77
2022/05/05 04:01:18;;;;;;;;;;;21.40;99.90;;;;;;5116921;28;19908;-76
2022/05/05 04:03:45;;;;;;;;;;;21.30;99.90;;;;;;5116654;28;20384;-76
2022/05/05 04:06:13;;;;;;;;;;;21.20;99.90;;;;;;5116741;28;19907;-76
2022/05/05 04:08:40;;;;;;;;;;;21.20;99.90;;;;;;5116641;28;19908;-76
2022/05/05 04:11:07;;;;;;;;;;;21.10;99.90;;;;;;5115500;28;20366;-78
2022/05/05 04:13:34;;;;;;;;;;;21.10;99.90;;;;;;5116315;28;19908;-77
2022/05/05 04:16:00;;;;;;;;;;;21.10;99.90;;;;;;5116480;28;20306;-77
2022/05/05 04:18:27;;;;;;;;;;;21.00;99.90;;;;;;5116637;28;19918;-77
2022/05/05 04:20:54;;;;;;;;;;;21.00;99.90;;;;;;5116803;28;19914;-78
2022/05/05 04:23:21;;;;;;;;;;;21.00;99.90;;;;;;5116636;28;19908;-77
2022/05/05 04:25:48;;;;;;;;;;;20.90;99.90;;;;;;5116157;28;19912;-77
2022/05/05 04:28:15;;;;;;;;;;;20.80;99.90;;;;;;5116161;28;19908;-77
2022/05/05 04:30:41;;;;;;;;;;;20.70;99.90;;;;;;5117704;28;19908;-76
2022/05/05 04:33:08;;;;;;;;;;;20.70;99.90;;;;;;5116183;28;19912;-76
2022/05/05 04:35:36;;;;;;;;;;;20.70;99.90;;;;;;5114544;28;20378;-77
2022/05/05 04:38:03;;;;;;;;;;;20.70;99.90;;;;;;5116098;28;19915;-76
2022/05/05 04:40:29;;;;;;;;;;;20.60;99.90;;;;;;5115940;28;19930;-76
2022/05/05 04:42:56;;;;;;;;;;;20.60;99.90;;;;;;5115895;28;19908;-77
2022/05/05 04:45:23;;;;;;;;;;;20.60;99.90;;;;;;5116792;28;19908;-77
2022/05/05 04:47:50;;;;;;;;;;;20.60;99.90;;;;;;5115424;28;19922;-76
2022/05/05 04:50:17;;;;;;;;;;;20.50;99.90;;;;;;5115496;28;19981;-78
2022/05/05 04:52:44;;;;;;;;;;;20.60;99.90;;;;;;5115766;28;19991;-77
2022/05/05 04:55:11;;;;;;;;;;;20.50;99.90;;;;;;5115733;28;19916;-77
2022/05/05 04:57:38;;;;;;;;;;;20.60;99.90;;;;;;5115418;28;19912;-78
2022/05/05 05:00:07;;;;;;;;;;;20.60;99.90;;;;;;5115517;28;19957;-78
2022/05/05 05:02:34;;;;;;;;;;;20.60;99.90;;;;;;5115431;28;19957;-77
2022/05/05 05:05:00;;;;;;;;;;;20.60;99.90;;;;;;5114535;28;20028;-77
2022/05/05 05:07:27;;;;;;;;;;;20.60;99.90;;;;;;5115243;28;20010;-78
2022/05/05 05:09:54;;;;;;;;;;;20.60;99.90;;;;;;5115491;28;19920;-77
2022/05/05 05:12:20;;;;;;;;;;;20.50;99.90;;;;;;5115112;28;19976;-77
2022/05/05 05:14:47;;;;;;;;;;;20.50;99.90;;;;;;5115263;28;19966;-78
2022/05/05 05:17:14;;;;;;;;;;;20.50;99.90;;;;;;5113959;28;19911;-77
2022/05/05 05:19:40;;;;;;;;;;;20.40;99.90;;;;;;5114995;28;20308;-77
2022/05/05 05:22:07;;;;;;;;;;;20.40;99.90;;;;;;5115597;28;19918;-77
2022/05/05 05:24:34;;;;;;;;;;;20.40;99.90;;;;;;5116032;28;19960;-77
2022/05/05 05:27:01;;;;;;;;;;;20.40;99.90;;;;;;5115193;28;20534;-78
2022/05/05 05:29:27;;;;;;;;;;;20.30;99.90;;;;;;5114909;28;20350;-78
2022/05/05 05:31:54;;;;;;;;;;;20.30;99.90;;;;;;5114775;28;20352;-78
2022/05/05 05:34:21;;;;;;;;;;;20.20;99.90;;;;;;5114819;28;20014;-79
2022/05/05 05:36:50;;;;;;;;;;;20.10;99.90;;;;;;5115002;28;19911;-78
2022/05/05 05:39:18;;;;;;;;;;;20.10;99.90;;;;;;5114905;28;19919;-78
2022/05/05 05:41:44;;;;;;;;;;;20.10;99.90;;;;;;5114441;28;19933;-78
2022/05/05 05:44:11;;;;;;;;;;;20.10;99.90;;;;;;5114570;28;19908;-78
2022/05/05 05:46:38;;;;;;;;;;;20.10;99.90;;;;;;5114745;28;19912;-78
2022/05/05 05:49:09;;;;;;;;;;;20.20;99.90;;;;;;5114538;28;19908;-78
2022/05/05 05:51:36;;;;;;;;;;;20.20;99.90;;;;;;5114601;28;19969;-78
2022/05/05 05:54:03;;;;;;;;;;;20.30;99.90;;;;;;5114926;28;19933;-77
2022/05/05 05:56:30;;;;;;;;;;;20.30;99.90;;;;;;5114881;28;20385;-78
2022/05/05 05:58:57;;;;;;;;;;;20.20;99.90;;;;;;5114432;28;20103;-78
2022/05/05 06:03:53;;;;;;;;;;;20.10;99.90;;;;;;5114553;28;19994;-78
2022/05/05 06:04:10;;;;;;;;;;;20.10;99.90;;;;;;5114499;28;19908;-77
2022/05/05 06:06:36;;;;;;;;;;;20.10;99.90;;;;;;5114343;28;19908;-79
2022/05/05 06:09:04;;;;;;;;;;;20.10;99.90;;;;;;5114337;28;19992;-78
2022/05/05 06:11:31;;;;;;;;;;;19.90;99.90;;;;;;5113935;28;20007;-76
2022/05/05 06:13:58;;;;;;;;;;;19.90;99.90;;;;;;5114369;28;19943;-78
2022/05/05 06:16:25;;;;;;;;;;;20.00;99.90;;;;;;5113094;28;19952;-78
2022/05/05 06:18:52;;;;;;;;;;;20.00;99.90;;;;;;5113190;28;19908;-77
2022/05/05 06:21:18;;;;;;;;;;;20.00;99.90;;;;;;5114742;28;19908;-79
2022/05/05 06:23:45;;;;;;;;;;;20.00;99.90;;;;;;5113799;28;20316;-79
2022/05/05 06:26:12;;;;;;;;;;;19.90;99.90;;;;;;5114016;28;19908;-78
2022/05/05 06:28:38;;;;;;;;;;;19.80;99.90;;;;;;5114103;28;19907;-79
2022/05/05 06:31:05;;;;;;;;;;;19.80;99.90;;;;;;5114040;28;19908;-79
2022/05/05 06:33:32;;;;;;;;;;;19.80;99.90;;;;;;5114039;28;19957;-78
2022/05/05 06:35:58;;;;;;;;;;;19.80;99.90;;;;;;5112918;28;19923;-78
2022/05/05 06:38:25;;;;;;;;;;;19.70;99.90;;;;;;5114023;28;20007;-78
2022/05/05 06:40:52;;;;;;;;;;;19.70;99.90;;;;;;5112771;28;19962;-79
2022/05/05 06:43:19;;;;;;;;;;;19.70;99.90;;;;;;5114000;28;19956;-76
2022/05/05 06:45:46;;;;;;;;;;;19.70;99.90;;;;;;5112401;28;19908;-75
2022/05/05 06:48:13;;;;;;;;;;;19.70;99.90;;;;;;5113830;28;20254;-75
2022/05/05 06:50:39;;;;;;;;;;;19.60;99.90;;;;;;5112621;28;19920;-76
2022/05/05 06:53:06;;;;;;;;;;;19.60;99.90;;;;;;5111792;28;19912;-76
2022/05/05 06:55:33;;;;;;;;;;;19.50;99.90;;;;;;5111288;28;19926;-75
2022/05/05 06:57:59;;;;;;;;;;;19.50;99.90;;;;;;5111661;28;19918;-76
2022/05/05 07:01:51;;;;;;;;;;;19.40;99.90;;;;;;5111725;28;19908;-76
2022/05/05 07:03:12;;;;;;;;;;;19.40;99.90;;;;;;5111451;28;20362;-76
2022/05/05 07:05:39;;;;;;;;;;;19.40;99.90;;;;;;5111094;28;19916;-76
2022/05/05 07:08:06;;;;;;;;;;;19.30;99.90;;;;;;5108964;28;20339;-76
2022/05/05 07:13:17;;;;;;;;;;;19.20;99.90;;;;;;5111728;28;19926;-77
2022/05/05 07:15:44;;;;;;;;;;;19.20;99.90;;;;;;5111275;28;19920;-76
2022/05/05 07:18:10;;;;;;;;;;;19.20;99.90;;;;;;5111314;28;19915;-75
2022/05/05 07:20:37;;;;;;;;;;;19.20;99.90;;;;;;5111417;28;19944;-75
2022/05/05 07:23:05;;;;;;;;;;;19.20;99.90;;;;;;5109988;28;19915;-75
2022/05/05 07:25:31;;;;;;;;;;;19.30;99.90;;;;;;5111020;28;19908;-76
2022/05/05 07:27:58;;;;;;;;;;;19.20;99.90;;;;;;5113242;28;19912;-75
2022/05/05 07:30:24;;;;;;;;;;;19.20;99.90;;;;;;5114598;28;19935;-76
2022/05/05 07:32:51;;;;;;;;;;;19.20;99.90;;;;;;5115260;28;20320;-76
2022/05/05 07:35:18;;;;;;;;;;;19.10;99.90;;;;;;5115066;28;20527;-76
2022/05/05 07:37:45;;;;;;;;;;;19.10;99.90;;;;;;5113735;28;19915;-75
2022/05/05 07:40:11;;;;;;;;;;;19.10;99.90;;;;;;5114825;28;19907;-77
2022/05/05 07:42:41;;;;;;;;;;;19.10;99.90;;;;;;5115155;28;19915;-76
2022/05/05 07:45:08;;;;;;;;;;;19.10;99.90;;;;;;5114921;28;20381;-77
2022/05/05 07:47:34;;;;;;;;;;;19.00;99.90;;;;;;5116253;28;19908;-76
2022/05/05 07:50:01;;;;;;;;;;;19.00;99.90;;;;;;5115443;28;20378;-76
2022/05/05 07:52:28;;;;;;;;;;;19.00;99.90;;;;;;5115660;28;19973;-77
2022/05/05 07:54:55;;;;;;;;;;;19.00;99.90;;;;;;5115100;28;20014;-77
2022/05/05 07:57:22;;;;;;;;;;;18.90;99.90;;;;;;5113257;28;19996;-76
2022/05/05 07:59:49;;;;;;;;;;;18.90;99.90;;;;;;5114470;28;19935;-76
2022/05/05 08:02:16;;;;;;;;;;;18.90;99.90;;;;;;5114786;28;19919;-77
2022/05/05 08:04:43;;;;;;;;;;;18.90;99.90;;;;;;5114850;28;19954;-76
2022/05/05 08:07:11;;;;;;;;;;;18.80;99.90;;;;;;5115417;28;19953;-79
2022/05/05 08:09:38;;;;;;;;;;;18.80;99.90;;;;;;5114273;28;19922;-77
2022/05/05 08:12:05;;;;;;;;;;;18.70;99.90;;;;;;5114436;28;19915;-77
2022/05/05 08:14:32;;;;;;;;;;;18.80;99.90;;;;;;5114466;28;19935;-78
2022/05/05 08:16:59;;;;;;;;;;;18.70;99.90;;;;;;5114606;28;20014;-77
2022/05/05 08:19:25;;;;;;;;;;;18.70;99.90;;;;;;5114407;28;19911;-76
2022/05/05 08:21:52;;;;;;;;;;;18.70;99.90;;;;;;5114006;28;19957;-78
2022/05/05 08:29:48;;;;;;;;;;;18.60;99.90;;;;;;5113928;28;19918;-78
2022/05/05 08:32:15;;;;;;;;;;;18.60;99.90;;;;;;5114008;28;19931;-79
2022/05/05 08:34:41;;;;;;;;;;;18.60;99.90;;;;;;5113788;28;19919;-80
2022/05/05 08:37:08;;;;;;;;;;;18.60;99.90;;;;;;5113345;28;19926;-79
2022/05/05 08:39:34;;;;;;;;;;;18.50;99.90;;;;;;5113605;28;19912;-79
2022/05/05 08:42:03;;;;;;;;;;;18.50;99.90;;;;;;5113760;28;19918;-79
2022/05/05 08:44:30;;;;;;;;;;;18.50;99.90;;;;;;5113582;28;19907;-80
2022/05/05 08:46:56;;;;;;;;;;;18.50;99.90;;;;;;5113830;28;19912;-79
2022/05/05 08:49:23;;;;;;;;;;;18.50;99.90;;;;;;5113533;28;19927;-78
2022/05/05 08:51:52;;;;;;;;;;;18.50;99.90;;;;;;5113453;28;20320;-78
2022/05/05 08:54:19;;;;;;;;;;;18.50;99.90;;;;;;5081606;28;20322;-78
2022/05/05 08:56:50;;;;;;;;;;;18.50;99.90;;;;;;5072513;28;19966;-78
2022/05/05 08:59:17;;;;;;;;;;;18.60;99.90;;;;;;5072329;28;19913;-80
2022/05/05 09:01:44;;;;;;;;;;;18.60;99.90;;;;;;5072231;28;19913;-79
2022/05/05 09:04:11;;;;;;;;;;;18.60;99.90;;;;;;5072643;28;19913;-78
2022/05/05 09:06:42;;;;;;;;;;;18.60;99.90;;;;;;5074409;28;19998;-79
2022/05/05 09:09:24;;;;;;;;;;;18.60;99.90;;;;;;5074725;28;19952;-79
2022/05/05 09:12:06;;;;;;;;;;;18.60;99.90;;;;;;5074547;28;20359;-79
2022/05/05 09:14:37;;;;;;;;;;;18.60;99.90;;;;;;5074351;28;19918;-80
2022/05/05 09:17:05;;;;;;;;;;;18.50;99.90;;;;;;5074636;28;19916;-79
2022/05/05 09:19:36;;;;;;;;;;;18.50;99.90;;;;;;5074440;28;19962;-79
2022/05/05 09:22:04;;;;;;;;;;;18.50;99.90;;;;;;5074656;28;19970;-80
2022/05/05 09:24:40;;;;;;;;;;;18.50;99.90;;;;;;5074558;28;19908;-79
2022/05/05 09:27:20;;;;;;;;;;;18.60;99.90;;;;;;5074562;28;19931;-80
2022/05/05 09:30:04;;;;;;;;;;;18.60;99.90;;;;;;5074196;28;19909;-79
2022/05/05 09:32:35;;;;;;;;;;;18.60;99.90;;;;;;5074458;28;19908;-79
2022/05/05 09:35:03;;;;;;;;;;;18.70;99.90;;;;;;5074160;28;19916;-79
2022/05/05 09:37:30;;;;;;;;;;;18.60;99.90;;;;;;5073599;28;19962;-77
2022/05/05 09:39:58;;;;;;;;;;;18.60;99.90;;;;;;5074084;28;19909;-77
2022/05/05 09:42:40;;;;;;;;;;;18.60;99.90;;;;;;5074172;28;19915;-78
2022/05/05 09:45:12;;;;;;;;;;;18.70;99.90;;;;;;5074170;28;20383;-79
2022/05/05 09:47:39;;;;;;;;;;;18.70;99.90;;;;;;5073799;28;19912;-78
2022/05/05 09:50:06;;;;;;;;;;;18.70;99.90;;;;;;5073093;28;19921;-79
2022/05/05 09:58:08;;;;;;;;;;;18.60;99.90;;;;;;5074463;28;19930;-78
2022/05/05 10:00:45;;;;;;;;;;;18.60;99.90;;;;;;5073895;28;19909;-78
2022/05/05 10:06:00;;;;;;;;;;;18.60;99.90;;;;;;5073665;28;19915;-78
2022/05/05 10:08:48;;;;;;;;;;;18.70;99.90;;;;;;5073633;28;20298;-79
2022/05/05 10:11:15;;;;;;;;;;;18.60;99.90;;;;;;5073582;28;19908;-77
2022/05/05 10:13:43;;;;;;;;;;;18.70;99.90;;;;;;5073554;28;19947;-79
2022/05/05 10:16:09;;;;;;;;;;;18.70;99.90;;;;;;5073639;28;19916;-77
2022/05/05 10:18:38;;;;;;;;;;;18.70;99.90;;;;;;5073632;28;19908;-78
2022/05/05 10:21:14;;;;;;;;;;;18.60;99.90;;;;;;5073045;28;19909;-79
2022/05/05 10:23:59;;;;;;;;;;;18.60;99.90;;;;;;5073321;28;19908;-79
2022/05/05 10:26:26;;;;;;;;;;;18.60;99.90;;;;;;5073386;28;19970;-78
2022/05/05 10:28:53;;;;;;;;;;;18.50;99.90;;;;;;5073578;28;19908;-78
2022/05/05 10:31:37;;;;;;;;;;;18.50;99.90;;;;;;5073461;28;19987;-77
2022/05/05 10:34:07;;;;;;;;;;;18.40;99.90;;;;;;5073655;28;19912;-76
2022/05/05 10:36:35;;;;;;;;;;;18.40;99.90;;;;;;5072834;28;19916;-76
2022/05/05 10:39:26;;;;;;;;;;;18.40;99.90;;;;;;5073435;28;19908;-75
2022/05/05 10:42:13;;;;;;;;;;;18.30;99.90;;;;;;5073247;28;19912;-78
2022/05/05 10:44:59;;;;;;;;;;;18.40;99.90;;;;;;5073488;28;19912;-77
2022/05/05 10:47:26;;;;;;;;;;;18.40;99.90;;;;;;5073333;28;19915;-78
2022/05/05 10:49:54;;;;;;;;;;;18.30;99.90;;;;;;5072858;28;20355;-78
2022/05/05 10:52:30;;;;;;;;;;;18.30;99.90;;;;;;5072693;28;19909;-79
2022/05/05 10:54:57;;;;;;;;;;;18.20;99.90;;;;;;5105213;28;20355;-77
2022/05/05 10:57:24;;;;;;;;;;;18.20;99.90;;;;;;5073167;28;19938;-77
2022/05/05 11:00:09;;;;;;;;;;;18.10;99.90;;;;;;5072834;28;19908;-78
2022/05/05 11:02:37;;;;;;;;;;;18.10;99.90;;;;;;5074557;28;19962;-78
2022/05/05 11:05:22;;;;;;;;;;;18.00;99.90;;;;;;5076623;28;19915;-78
2022/05/05 11:07:52;;;;;;;;;;;17.90;99.90;;;;;;5077028;28;20373;-76
2022/05/05 11:10:37;;;;;;;;;;;17.90;99.90;;;;;;5076842;28;19915;-77
2022/05/05 11:13:03;;;;;;;;;;;17.90;99.90;;;;;;5109745;28;20282;-78
2022/05/05 11:21:33;;;;;;;;;;;17.90;99.90;;;;;;5076683;28;19916;-77
2022/05/05 11:24:01;;;;;;;;;;;17.90;99.90;;;;;;5076756;28;19916;-78
2022/05/05 11:26:28;;;;;;;;;;;17.90;99.90;;;;;;5076941;28;19919;-76
2022/05/05 11:28:58;;;;;;;;;;;17.90;99.90;;;;;;5076781;28;19915;-79
2022/05/05 11:31:27;;;;;;;;;;;17.90;99.90;;;;;;5076872;28;20009;-76
2022/05/05 11:33:57;;;;;;;;;;;17.80;99.90;;;;;;5076394;28;19908;-77
2022/05/05 11:36:28;;;;;;;;;;;17.80;99.90;;;;;;5076088;28;19923;-76
2022/05/05 11:38:55;;;;;;;;;;;17.80;99.90;;;;;;5076395;28;20410;-77
2022/05/05 11:41:22;;;;;;;;;;;17.80;99.90;;;;;;5076605;28;19923;-79
2022/05/05 11:46:36;;;;;;;;;;;17.70;99.90;;;;;;5076499;28;19916;-78
2022/05/05 11:49:02;;;;;;;;;;;17.70;99.90;;;;;;5076446;28;19962;-78
2022/05/05 11:51:30;;;;;;;;;;;17.70;99.90;;;;;;5075842;28;19917;-79
2022/05/05 11:54:01;;;;;;;;;;;17.60;99.90;;;;;;5075042;28;19990;-79
2022/05/05 11:56:31;;;;;;;;;;;17.60;99.90;;;;;;5076200;28;19921;-77
2022/05/05 12:02:18;;;;;;;;;;;17.60;99.90;;;;;;5066702;28;19920;-81
2022/05/05 12:04:49;;;;;;;;;;;17.60;99.90;;;;;;5081013;28;19915;-78
2022/05/05 12:07:19;;;;;;;;;;;17.60;99.90;;;;;;5077081;28;20001;-82
2022/05/05 12:09:48;;;;;;;;;;;17.60;99.90;;;;;;5075831;28;19912;-81
2022/05/05 12:12:25;;;;;;;;;;;17.60;99.90;;;;;;5076022;28;19915;-80
2022/05/05 12:14:56;;;;;;;;;;;17.50;99.90;;;;;;5075413;28;20007;-84
2022/05/05 12:17:24;;;;;;;;;;;17.60;99.90;;;;;;5076017;28;19959;-83
2022/05/05 12:19:55;;;;;;;;;;;17.50;99.90;;;;;;5075022;28;20365;-82
2022/05/05 12:22:28;;;;;;;;;;;17.60;99.90;;;;;;5075802;28;19915;-84
2022/05/05 12:24:54;;;;;;;;;;;17.60;99.90;;;;;;5075619;28;20341;-81
2022/05/05 12:27:25;;;;;;;;;;;17.50;99.90;;;;;;5075676;28;19915;-83
2022/05/05 12:29:51;;;;;;;;;;;17.50;99.90;;;;;;5075549;28;19962;-84
2022/05/05 12:32:19;;;;;;;;;;;17.50;99.90;;;;;;5075581;28;19996;-83
2022/05/05 12:34:46;;;;;;;;;;;17.50;99.90;;;;;;5075035;28;19913;-83
2022/05/05 12:37:19;;;;;;;;;;;17.40;99.90;;;;;;5075586;28;19913;-82
2022/05/05 12:40:03;;;;;;;;;;;17.40;99.90;;;;;;5075056;28;19915;-82
2022/05/05 12:42:49;;;;;;;;;;;17.40;99.90;;;;;;5075559;28;19952;-82
2022/05/05 12:45:26;;;;;;;;;;;17.30;99.90;;;;;;5075359;28;19947;-82
2022/05/05 12:47:53;;;;;;;;;;;17.30;99.90;;;;;;5075181;28;20417;-81
2022/05/05 12:50:29;;;;;;;;;;;17.30;99.90;;;;;;5074573;28;19920;-84
2022/05/05 13:01:19;;;;;;;;;;;17.20;99.90;;;;;;5075431;28;20043;-82
2022/05/05 13:03:46;;;;;;;;;;;17.20;99.90;;;;;;5074214;28;19908;-82
2022/05/05 13:06:13;;;;;;;;;;;17.20;99.90;;;;;;5075088;28;20347;-81
2022/05/05 13:08:40;;;;;;;;;;;17.20;99.90;;;;;;5074549;28;19912;-79
2022/05/05 13:11:06;;;;;;;;;;;17.10;99.90;;;;;;5075002;28;20415;-75
2022/05/05 13:13:33;;;;;;;;;;;17.10;99.90;;;;;;5074703;28;19939;-79
2022/05/05 13:16:00;;;;;;;;;;;17.00;99.90;;;;;;5074710;28;19964;-78
2022/05/05 13:18:27;;;;;;;;;;;17.10;99.90;;;;;;5075112;28;20455;-78
2022/05/05 13:20:53;;;;;;;;;;;17.10;99.90;;;;;;5074781;28;20251;-79
2022/05/05 13:23:20;;;;;;;;;;;17.10;99.90;;;;;;5074591;28;20382;-80
2022/05/05 13:25:47;;;;;;;;;;;17.20;99.90;;;;;;5073532;28;19909;-78
2022/05/05 13:28:14;;;;;;;;;;;17.20;99.90;;;;;;5074551;28;19954;-77
2022/05/05 13:30:40;;;;;;;;;;;17.20;99.90;;;;;;5074462;28;20282;-78
2022/05/05 13:33:07;;;;;;;;;;;17.10;99.90;;;;;;5074505;28;19916;-77
2022/05/05 13:35:34;;;;;;;;;;;17.10;99.90;;;;;;5074141;28;19917;-77
2022/05/05 13:38:00;;;;;;;;;;;17.00;99.90;;;;;;5074479;28;19909;-79
2022/05/05 13:40:30;;;;;;;;;;;16.90;99.90;;;;;;5074161;28;19916;-78
2022/05/05 13:42:57;;;;;;;;;;;16.90;99.90;;;;;;5074294;28;20274;-78
2022/05/05 13:45:24;;;;;;;;;;;16.80;99.90;;;;;;5074053;28;19974;-80
2022/05/05 13:47:50;;;;;;;;;;;16.80;99.90;;;;;;5073972;28;20279;-78
2022/05/05 13:50:17;;;;;;;;;;;16.70;99.90;;;;;;5074045;28;19921;-76
2022/05/05 13:52:44;;;;;;;;;;;16.80;99.90;;;;;;5074046;28;19915;-79
2022/05/05 13:55:11;;;;;;;;;;;16.70;99.90;;;;;;5073938;28;19917;-80
2022/05/05 13:57:38;;;;;;;;;;;16.70;99.90;;;;;;5073761;28;19943;-82
2022/05/05 14:00:05;;;;;;;;;;;16.60;99.90;;;;;;5073844;28;19966;-81
2022/05/05 14:02:32;;;;;;;;;;;16.60;99.90;;;;;;5073949;28;19963;-81
2022/05/05 14:04:58;;;;;;;;;;;16.60;99.90;;;;;;5073929;28;19954;-81
2022/05/05 14:12:55;;;;;;;;;;;16.50;99.90;;;;;;5073722;28;19970;-81
2022/05/05 14:15:22;;;;;;;;;;;16.50;99.90;;;;;;5084912;28;19967;-81
2022/05/05 14:17:49;;;;;;;;;;;16.50;99.90;;;;;;5097959;28;20317;-79
2022/05/05 14:20:16;;;;;;;;;;;16.50;99.90;;;;;;5093135;28;20285;-78
2022/05/05 14:22:44;;;;;;;;;;;16.50;99.90;;;;;;5093799;28;20351;-79
2022/05/05 14:25:11;;;;;;;;;;;16.50;99.90;;;;;;5093751;28;19908;-78
2022/05/05 14:27:38;;;;;;;;;;;16.50;99.90;;;;;;5093654;28;19912;-80
2022/05/05 14:30:08;;;;;;;;;;;16.40;99.90;;;;;;5093714;28;19909;-80
2022/05/05 14:32:35;;;;;;;;;;;16.40;99.90;;;;;;5093721;28;20345;-77
2022/05/05 14:35:02;;;;;;;;;;;16.40;99.90;;;;;;5093661;28;19923;-79
2022/05/05 14:37:29;;;;;;;;;;;16.40;99.90;;;;;;5093430;28;19915;-81
2022/05/05 14:39:56;;;;;;;;;;;16.40;99.90;;;;;;5093668;28;19939;-79
2022/05/05 14:42:22;;;;;;;;;;;16.40;99.90;;;;;;5093633;28;19908;-78
2022/05/05 14:44:49;;;;;;;;;;;16.40;99.90;;;;;;5093548;28;19940;-79
2022/05/05 14:47:16;;;;;;;;;;;16.50;99.90;;;;;;5093513;28;20339;-80
2022/05/05 14:49:48;;;;;;;;;;;16.50;99.90;;;;;;5093168;28;20362;-79
2022/05/05 14:52:19;;;;;;;;;;;16.50;99.90;;;;;;5093594;28;19931;-79
2022/05/05 14:54:45;;;;;;;;;;;16.30;99.90;;;;;;5093192;28;20353;-80
2022/05/05 14:57:15;;;;;;;;;;;16.30;99.90;;;;;;5093445;28;19954;-79
2022/05/05 14:59:42;;;;;;;;;;;16.30;99.90;;;;;;5093321;28;19908;-80
2022/05/05 15:02:09;;;;;;;;;;;16.20;99.90;;;;;;5093449;28;19915;-78
2022/05/05 15:04:36;;;;;;;;;;;16.10;99.90;;;;;;5093313;28;19908;-78
2022/05/05 15:07:03;;;;;;;;;;;16.10;99.90;;;;;;5093411;28;19908;-78
2022/05/05 15:09:30;;;;;;;;;;;16.00;99.90;;;;;;5093127;28;19908;-77
2022/05/05 15:11:59;;;;;;;;;;;15.90;99.90;;;;;;5093270;28;19908;-79